Time;durP1;ratioP1;P1;durP2;ratioP2;P2;SDS_P1;SDS_P2;PMS_P1;PMS_P2;Temp;Humidity;BMP_temperature;BMP_pressure;BME280_temperature;BME280_humidity;BME280_pressure;Samples;Min_cycle;Max_cycle;Signal;HPM_P1;HPM_P2
2022/07/26 00:01:39;;;;;;;9.57;8.10;;;29.00;63.70;;;;;;5038966;28;20203;-74
2022/07/26 00:04:06;;;;;;;9.67;8.60;;;29.00;63.80;;;;;;5040290;28;20203;-74
2022/07/26 00:06:33;;;;;;;13.03;8.90;;;29.00;63.90;;;;;;5036723;28;20226;-74
2022/07/26 00:09:01;;;;;;;14.00;8.37;;;28.90;63.80;;;;;;5041045;28;20213;-73
2022/07/26 00:11:29;;;;;;;12.67;8.63;;;28.90;63.80;;;;;;5042375;28;20202;-73
2022/07/26 00:13:56;;;;;;;10.73;8.50;;;28.90;63.80;;;;;;5041109;28;20661;-74
2022/07/26 00:16:23;;;;;;;11.07;9.07;;;28.90;64.10;;;;;;5045545;28;20269;-74
2022/07/26 00:18:50;;;;;;;9.57;7.80;;;28.90;64.10;;;;;;5078332;28;20625;-74
2022/07/26 00:21:17;;;;;;;11.13;8.13;;;28.80;64.00;;;;;;5043742;28;20239;-74
2022/07/26 00:23:44;;;;;;;10.47;7.80;;;28.80;64.10;;;;;;5041434;28;20209;-74
2022/07/26 00:26:11;;;;;;;12.03;8.97;;;28.70;64.20;;;;;;5041201;28;20207;-74
2022/07/26 00:28:40;;;;;;;10.97;8.20;;;28.70;64.40;;;;;;5044474;28;20553;-74
2022/07/26 00:31:07;;;;;;;14.37;8.23;;;28.70;64.40;;;;;;5046980;28;20301;-74
2022/07/26 00:33:35;;;;;;;10.97;8.53;;;28.60;64.30;;;;;;5043283;28;20202;-74
2022/07/26 00:36:02;;;;;;;9.77;8.40;;;28.60;64.30;;;;;;5041640;28;20207;-74
2022/07/26 00:38:29;;;;;;;10.37;9.00;;;28.60;64.30;;;;;;5042941;28;20218;-74
2022/07/26 00:40:56;;;;;;;13.10;8.80;;;28.60;64.50;;;;;;5043849;28;20200;-74
2022/07/26 00:43:23;;;;;;;10.70;8.27;;;28.60;64.50;;;;;;5042493;28;20210;-74
2022/07/26 00:45:50;;;;;;;11.93;8.67;;;28.50;64.20;;;;;;5045561;28;20635;-74
2022/07/26 00:48:17;;;;;;;12.90;8.23;;;28.50;64.20;;;;;;5042735;28;20206;-74
2022/07/26 00:50:45;;;;;;;10.87;8.53;;;28.50;64.20;;;;;;5043217;28;20710;-74
2022/07/26 00:53:12;;;;;;;9.00;7.93;;;28.50;64.20;;;;;;5074775;28;20202;-74
2022/07/26 00:55:39;;;;;;;8.90;7.37;;;28.40;63.80;;;;;;5044221;28;20239;-74
2022/07/26 00:58:06;;;;;;;9.40;8.03;;;28.40;63.60;;;;;;5042756;28;20209;-74
2022/07/26 01:00:34;;;;;;;9.63;7.50;;;28.40;63.50;;;;;;5042418;28;20247;-74
2022/07/26 01:03:01;;;;;;;10.03;8.73;;;28.40;63.50;;;;;;5046463;28;20229;-74
2022/07/26 01:05:29;;;;;;;8.50;7.73;;;28.30;63.30;;;;;;5043701;28;20289;-74
2022/07/26 01:07:57;;;;;;;9.83;7.87;;;28.30;63.30;;;;;;5040632;28;20211;-74
2022/07/26 01:10:24;;;;;;;12.60;8.10;;;28.30;63.20;;;;;;5045732;28;20225;-74
2022/07/26 01:12:51;;;;;;;9.27;7.70;;;28.30;63.20;;;;;;5040666;28;20207;-74
2022/07/26 01:15:18;;;;;;;10.07;6.93;;;28.20;62.90;;;;;;5046826;28;20532;-74
2022/07/26 01:17:46;;;;;;;9.70;7.63;;;28.20;62.90;;;;;;5045121;28;20467;-74
2022/07/26 01:20:14;;;;;;;9.57;7.50;;;28.20;62.60;;;;;;5041316;28;20321;-74
2022/07/26 01:22:41;;;;;;;8.70;6.93;;;28.20;62.30;;;;;;5046823;28;20266;-74
2022/07/26 01:25:08;;;;;;;13.13;6.97;;;28.20;62.20;;;;;;5045718;28;20553;-74
2022/07/26 01:27:39;;;;;;;8.97;7.13;;;28.30;62.00;;;;;;5046158;28;20231;-74
2022/07/26 01:30:08;;;;;;;7.67;6.97;;;28.30;61.80;;;;;;5039270;28;20304;-74
2022/07/26 01:32:36;;;;;;;9.23;6.80;;;28.30;61.70;;;;;;5055065;28;20203;-74
2022/07/26 01:35:05;;;;;;;11.50;7.33;;;28.30;61.60;;;;;;5046825;28;20548;-74
2022/07/26 01:37:32;;;;;;;7.03;6.33;;;28.30;61.60;;;;;;5047498;28;20195;-74
2022/07/26 01:39:59;;;;;;;8.97;6.97;;;28.30;61.60;;;;;;5044818;28;20230;-74
2022/07/26 01:42:26;;;;;;;11.50;7.00;;;28.30;61.60;;;;;;5045054;28;20216;-74
2022/07/26 01:44:53;;;;;;;10.37;6.83;;;28.30;61.70;;;;;;5042596;28;20217;-74
2022/07/26 01:47:20;;;;;;;7.07;6.47;;;28.30;61.80;;;;;;5038150;28;20203;-74
2022/07/26 01:49:47;;;;;;;10.53;7.43;;;28.30;61.80;;;;;;5046088;28;20549;-74
2022/07/26 01:52:14;;;;;;;7.23;6.53;;;28.30;61.80;;;;;;5043353;28;20293;-74
2022/07/26 01:54:41;;;;;;;11.07;7.13;;;28.30;62.00;;;;;;5040915;28;20202;-74
2022/07/26 01:57:09;;;;;;;7.67;6.67;;;28.20;62.10;;;;;;5041148;28;20204;-74
2022/07/26 01:59:36;;;;;;;9.33;6.87;;;28.20;62.40;;;;;;5044744;28;20654;-74
2022/07/26 02:02:03;;;;;;;10.13;7.27;;;28.10;62.60;;;;;;5042904;28;20293;-74
2022/07/26 02:07:15;;;;;;;9.13;7.53;;;28.10;63.00;;;;;;5041400;28;20210;-74
2022/07/26 02:09:43;;;;;;;9.17;7.13;;;28.00;63.10;;;;;;5042286;28;20216;-74
2022/07/26 02:12:10;;;;;;;9.07;7.23;;;28.00;63.30;;;;;;5040845;28;20207;-74
2022/07/26 02:14:37;;;;;;;7.60;6.90;;;28.00;63.40;;;;;;5042910;28;20210;-74
2022/07/26 02:17:04;;;;;;;11.67;7.27;;;28.00;63.50;;;;;;5045456;28;20206;-74
2022/07/26 02:19:31;;;;;;;8.80;6.80;;;27.90;63.50;;;;;;5042330;28;20214;-74
2022/07/26 02:21:59;;;;;;;10.00;6.87;;;27.90;63.60;;;;;;5043093;28;20225;-74
2022/07/26 02:24:27;;;;;;;8.13;7.33;;;27.90;63.70;;;;;;5043323;28;20697;-74
2022/07/26 02:26:59;;;;;;;8.47;7.33;;;27.90;63.80;;;;;;5041974;28;20332;-74
2022/07/26 02:29:27;;;;;;;10.03;7.57;;;27.80;63.70;;;;;;5075057;28;20604;-74
2022/07/26 02:31:55;;;;;;;11.10;7.07;;;27.80;64.10;;;;;;5040110;28;20213;-74
2022/07/26 02:34:22;;;;;;;8.77;6.90;;;27.80;64.20;;;;;;5041944;28;20204;-74
2022/07/26 02:36:50;;;;;;;9.53;7.50;;;27.70;64.20;;;;;;5042602;28;20206;-74
2022/07/26 02:39:17;;;;;;;8.60;6.63;;;27.70;64.20;;;;;;5041788;28;20252;-74
2022/07/26 02:41:44;;;;;;;8.87;7.77;;;27.70;64.30;;;;;;5042023;28;20207;-74
2022/07/26 02:44:11;;;;;;;9.10;7.90;;;27.70;64.40;;;;;;5043017;28;20208;-74
2022/07/26 02:46:38;;;;;;;7.83;7.13;;;27.60;64.40;;;;;;5044759;28;20195;-74
2022/07/26 02:49:05;;;;;;;9.50;7.33;;;27.60;64.60;;;;;;5040458;28;20643;-74
2022/07/26 02:51:33;;;;;;;11.47;6.83;;;27.60;64.70;;;;;;5045390;28;20262;-74
2022/07/26 02:54:00;;;;;;;7.47;6.87;;;27.50;64.90;;;;;;5047431;28;20283;-74
2022/07/26 02:56:27;;;;;;;13.63;6.83;;;27.50;65.20;;;;;;5040797;28;20202;-74
2022/07/26 02:58:54;;;;;;;9.90;6.80;;;27.50;65.30;;;;;;5046231;28;20195;-74
2022/07/26 03:01:21;;;;;;;9.33;6.93;;;27.50;65.50;;;;;;5036693;28;20195;-74
2022/07/26 03:03:48;;;;;;;12.07;7.10;;;27.50;65.60;;;;;;5037524;28;20233;-74
2022/07/26 03:06:18;;;;;;;11.77;7.67;;;27.40;65.70;;;;;;5023734;28;20242;-74
2022/07/26 03:08:46;;;;;;;13.40;7.70;;;27.40;65.70;;;;;;5037401;28;20551;-74
2022/07/26 03:11:13;;;;;;;9.47;7.07;;;27.40;65.90;;;;;;5044182;28;20282;-74
2022/07/26 03:13:40;;;;;;;11.37;7.27;;;27.40;66.10;;;;;;5046325;28;20633;-74
2022/07/26 03:16:07;;;;;;;12.67;7.93;;;27.30;66.10;;;;;;5045320;28;20196;-74
2022/07/26 03:18:35;;;;;;;9.23;7.40;;;27.30;66.30;;;;;;5045230;28;20203;-73
2022/07/26 03:21:02;;;;;;;15.40;7.57;;;27.30;66.50;;;;;;5043722;28;20219;-74
2022/07/26 03:23:32;;;;;;;8.17;7.40;;;27.20;67.30;;;;;;5030852;28;20571;-74
2022/07/26 03:26:00;;;;;;;10.83;7.40;;;27.20;66.90;;;;;;5045758;28;20199;-74
2022/07/26 03:28:32;;;;;;;9.50;7.43;;;27.20;67.80;;;;;;5044036;28;20700;-74
2022/07/26 03:30:59;;;;;;;11.47;7.73;;;27.10;67.30;;;;;;5041252;28;20210;-74
2022/07/26 03:33:27;;;;;;;11.57;8.70;;;27.00;67.40;;;;;;5029530;28;20557;-74
2022/07/26 03:35:55;;;;;;;9.87;7.60;;;27.00;67.70;;;;;;5043533;28;20688;-74
2022/07/26 03:38:22;;;;;;;10.37;8.50;;;27.00;67.70;;;;;;5039804;28;20206;-74
2022/07/26 03:40:49;;;;;;;9.03;7.90;;;27.00;68.00;;;;;;5039832;28;20563;-74
2022/07/26 03:43:16;;;;;;;10.43;7.67;;;27.00;68.20;;;;;;5041030;28;20728;-74
2022/07/26 03:45:49;;;;;;;9.07;8.13;;;26.90;68.30;;;;;;5041867;28;20225;-74
2022/07/26 03:48:16;;;;;;;10.73;8.23;;;26.90;68.40;;;;;;5040705;28;20272;-74
2022/07/26 03:50:43;;;;;;;13.00;8.23;;;26.80;68.50;;;;;;5031334;28;20305;-74
2022/07/26 03:53:10;;;;;;;12.17;8.13;;;26.80;68.60;;;;;;5042855;28;20252;-74
2022/07/26 03:58:23;;;;;;;9.97;8.03;;;26.80;68.80;;;;;;5041939;28;20206;-74
2022/07/26 04:00:50;;;;;;;10.17;8.03;;;26.80;68.90;;;;;;5039448;28;20221;-74
2022/07/26 04:03:17;;;;;;;11.47;8.07;;;26.70;69.00;;;;;;5042388;28;20307;-74
2022/07/26 04:05:44;;;;;;;10.70;9.00;;;26.70;69.10;;;;;;5044553;28;20199;-74
2022/07/26 04:08:15;;;;;;;12.20;8.60;;;26.70;69.20;;;;;;5044029;28;20713;-74
2022/07/26 04:10:52;;;;;;;8.50;7.80;;;26.60;69.30;;;;;;5047486;28;20204;-74
2022/07/26 04:13:19;;;;;;;14.43;9.07;;;26.60;69.50;;;;;;5042593;28;20202;-73
2022/07/26 04:15:46;;;;;;;11.03;9.50;;;26.60;69.40;;;;;;5042755;28;20204;-73
2022/07/26 04:18:13;;;;;;;9.70;8.70;;;26.60;69.50;;;;;;5046344;28;20221;-73
2022/07/26 04:20:41;;;;;;;12.13;8.73;;;26.60;69.50;;;;;;5047072;28;20237;-73
2022/07/26 04:23:08;;;;;;;11.93;9.23;;;26.60;69.60;;;;;;5042305;28;20207;-74
2022/07/26 04:25:39;;;;;;;14.27;8.70;;;26.60;69.60;;;;;;5041596;28;20211;-74
2022/07/26 04:28:08;;;;;;;12.70;8.53;;;26.70;69.70;;;;;;5042794;28;20238;-74
2022/07/26 04:30:36;;;;;;;12.03;9.27;;;26.70;69.70;;;;;;5043239;28;20209;-74
2022/07/26 04:33:04;;;;;;;10.37;8.40;;;26.80;70.30;;;;;;5044421;28;20203;-74
2022/07/26 04:35:31;;;;;;;11.03;8.60;;;26.80;69.60;;;;;;5051756;28;20216;-74
2022/07/26 04:37:59;;;;;;;14.93;9.63;;;26.80;69.60;;;;;;5047352;28;20216;-74
2022/07/26 04:40:27;;;;;;;14.37;8.60;;;26.90;69.60;;;;;;5044510;28;20215;-74
2022/07/26 04:42:55;;;;;;;14.63;8.83;;;26.90;69.50;;;;;;5045717;28;20203;-74
2022/07/26 04:45:22;;;;;;;12.83;9.37;;;26.90;69.50;;;;;;5043980;28;20216;-74
2022/07/26 04:47:49;;;;;;;13.57;10.17;;;26.90;69.60;;;;;;5045342;28;20206;-73
2022/07/26 04:50:18;;;;;;;13.53;9.33;;;26.90;69.70;;;;;;5042520;28;20211;-73
2022/07/26 04:52:46;;;;;;;17.77;10.20;;;27.00;69.80;;;;;;5047153;28;20203;-73
2022/07/26 04:55:13;;;;;;;15.20;9.93;;;27.00;69.90;;;;;;5044921;28;20198;-73
2022/07/26 04:57:41;;;;;;;11.13;10.03;;;27.10;69.80;;;;;;5044029;28;20545;-74
2022/07/26 05:00:11;;;;;;;12.60;10.17;;;27.10;69.70;;;;;;5032096;28;20224;-73
2022/07/26 05:02:57;;;;;;;11.83;10.03;;;27.20;69.70;;;;;;5043559;28;20201;-73
2022/07/26 05:05:26;;;;;;;13.77;9.70;;;27.30;69.70;;;;;;5044617;28;20195;-73
2022/07/26 05:07:56;;;;;;;13.97;9.57;;;27.40;69.50;;;;;;5046813;28;20649;-73
2022/07/26 05:10:35;;;;;;;18.17;9.70;;;27.50;69.20;;;;;;5042754;28;20214;-73
2022/07/26 05:13:04;;;;;;;13.70;8.80;;;27.60;68.80;;;;;;5042894;28;20214;-73
2022/07/26 05:15:32;;;;;;;10.13;8.80;;;27.60;68.40;;;;;;5037968;28;20211;-73
2022/07/26 05:18:07;;;;;;;12.60;9.03;;;27.70;68.10;;;;;;5075732;28;20202;-73
2022/07/26 05:20:37;;;;;;;10.57;9.43;;;27.70;67.70;;;;;;5042721;28;20226;-73
2022/07/26 05:23:04;;;;;;;12.40;9.67;;;27.80;68.10;;;;;;5043970;28;20202;-73
2022/07/26 05:25:31;;;;;;;10.23;9.20;;;27.80;67.40;;;;;;5026088;28;20229;-73
2022/07/26 05:27:58;;;;;;;12.73;9.07;;;27.90;67.30;;;;;;5059471;28;20299;-73
2022/07/26 05:30:26;;;;;;;8.37;7.57;;;27.80;67.20;;;;;;5041446;28;20209;-73
2022/07/26 05:32:53;;;;;;;10.97;9.10;;;27.90;67.10;;;;;;5042531;28;20214;-73
2022/07/26 05:35:20;;;;;;;15.60;8.67;;;27.90;66.90;;;;;;5044127;28;20234;-73
2022/07/26 05:37:48;;;;;;;14.73;9.33;;;28.00;66.70;;;;;;5044292;28;20220;-74
2022/07/26 05:40:15;;;;;;;10.30;9.20;;;28.10;66.40;;;;;;5040670;28;20226;-74
2022/07/26 05:42:42;;;;;;;8.67;7.77;;;28.20;65.80;;;;;;5042444;28;20206;-74
2022/07/26 05:45:10;;;;;;;14.07;8.30;;;28.20;65.80;;;;;;5045020;28;20203;-73
2022/07/26 05:47:37;;;;;;;10.30;8.50;;;28.20;65.80;;;;;;5043026;28;20214;-73
2022/07/26 05:50:05;;;;;;;10.90;7.80;;;28.20;65.90;;;;;;5041840;28;20210;-73
2022/07/26 05:52:32;;;;;;;12.97;8.50;;;28.20;66.00;;;;;;5048265;28;20210;-73
2022/07/26 05:54:59;;;;;;;12.30;8.50;;;28.30;65.80;;;;;;5040827;28;20285;-73
2022/07/26 05:57:26;;;;;;;8.63;7.67;;;28.30;65.60;;;;;;5041019;28;20206;-73
2022/07/26 05:59:54;;;;;;;9.57;8.53;;;28.40;65.20;;;;;;5043526;28;20666;-73
2022/07/26 06:02:21;;;;;;;12.97;8.20;;;28.50;65.10;;;;;;5045064;28;20198;-73
2022/07/26 06:04:48;;;;;;;12.27;7.57;;;28.60;64.90;;;;;;5042044;28;20225;-73
2022/07/26 06:07:15;;;;;;;8.77;7.50;;;28.70;64.60;;;;;;5043742;28;20208;-73
2022/07/26 06:09:42;;;;;;;8.13;7.13;;;28.90;64.50;;;;;;5042088;28;20543;-73
2022/07/26 06:12:09;;;;;;;14.63;7.83;;;28.90;64.00;;;;;;5040855;28;20638;-73
2022/07/26 06:14:37;;;;;;;8.70;6.77;;;29.00;63.40;;;;;;5036601;28;20199;-73
2022/07/26 06:17:04;;;;;;;10.43;6.97;;;29.20;63.20;;;;;;5045130;28;20203;-73
2022/07/26 06:19:31;;;;;;;12.10;8.87;;;29.20;62.80;;;;;;5038908;28;20269;-73
2022/07/26 06:21:59;;;;;;;10.97;6.73;;;29.30;62.70;;;;;;5042756;28;20237;-73
2022/07/26 06:24:26;;;;;;;12.53;7.70;;;29.40;62.30;;;;;;5041927;28;20191;-74
2022/07/26 06:26:54;;;;;;;8.17;7.13;;;29.40;61.50;;;;;;5038649;28;20259;-74
2022/07/26 06:29:31;;;;;;;11.63;7.57;;;29.50;61.60;;;;;;5038614;28;20206;-73
2022/07/26 06:31:58;;;;;;;7.23;6.43;;;29.60;61.70;;;;;;5042366;28;20211;-74
2022/07/26 06:34:26;;;;;;;8.00;6.20;;;29.70;61.70;;;;;;5040561;28;20207;-74
2022/07/26 06:36:53;;;;;;;13.17;6.37;;;29.80;61.30;;;;;;5041619;28;20214;-74
2022/07/26 06:39:20;;;;;;;6.90;6.30;;;30.00;60.90;;;;;;5039902;28;20631;-74
2022/07/26 06:41:47;;;;;;;8.60;6.73;;;30.10;60.60;;;;;;5040034;28;20306;-74
2022/07/26 06:44:21;;;;;;;10.87;6.37;;;30.20;59.90;;;;;;5037900;28;20651;-74
2022/07/26 06:46:48;;;;;;;9.03;6.10;;;30.30;59.20;;;;;;5038223;28;20218;-74
2022/07/26 06:49:15;;;;;;;9.50;6.37;;;30.40;59.20;;;;;;5042498;28;20198;-74
2022/07/26 06:51:48;;;;;;;12.37;8.30;;;30.50;58.70;;;;;;5042078;28;20289;-74
2022/07/26 06:54:15;;;;;;;7.40;5.60;;;30.60;57.60;;;;;;5040740;28;20215;-74
2022/07/26 06:56:42;;;;;;;6.67;5.60;;;30.80;58.10;;;;;;5041480;28;20202;-73
2022/07/26 06:59:09;;;;;;;24.37;8.40;;;30.90;57.80;;;;;;5042953;28;20207;-73
2022/07/26 07:01:36;;;;;;;12.10;6.47;;;31.00;57.10;;;;;;5037059;28;20226;-73
2022/07/26 07:04:23;;;;;;;10.17;7.27;;;31.20;56.90;;;;;;5039232;28;20268;-73
2022/07/26 07:06:50;;;;;;;9.53;5.53;;;31.30;56.00;;;;;;5041955;28;20195;-74
2022/07/26 07:09:18;;;;;;;6.40;5.17;;;31.40;55.60;;;;;;5040156;28;20207;-74
2022/07/26 07:11:48;;;;;;;6.03;5.53;;;31.50;55.70;;;;;;5038410;28;20523;-73
2022/07/26 07:14:22;;;;;;;8.83;4.87;;;31.60;55.40;;;;;;5073199;28;20210;-73
2022/07/26 07:16:49;;;;;;;6.00;5.40;;;31.80;54.70;;;;;;5042597;28;20260;-73
2022/07/26 07:19:16;;;;;;;6.77;5.10;;;31.90;54.40;;;;;;5044737;28;20238;-73
2022/07/26 07:21:43;;;;;;;6.00;5.40;;;32.00;54.20;;;;;;5044979;28;20227;-73
2022/07/26 07:24:10;;;;;;;10.07;5.17;;;32.10;54.00;;;;;;5044631;28;20210;-74
2022/07/26 07:26:38;;;;;;;8.90;5.63;;;32.20;52.90;;;;;;5036084;28;20308;-74
2022/07/26 07:29:05;;;;;;;5.33;4.63;;;32.30;52.50;;;;;;5039137;28;20195;-73
2022/07/26 07:31:32;;;;;;;5.87;4.90;;;32.20;52.60;;;;;;5037936;28;20195;-73
2022/07/26 07:34:17;;;;;;;7.93;5.07;;;32.30;52.90;;;;;;5041996;28;20209;-73
2022/07/26 07:36:45;;;;;;;5.67;4.47;;;32.50;53.10;;;;;;5045991;28;20532;-74
2022/07/26 07:39:13;;;;;;;8.27;5.37;;;32.60;52.20;;;;;;5045576;28;20234;-74
2022/07/26 07:41:44;;;;;;;5.17;4.67;;;32.70;51.20;;;;;;5041332;28;20218;-74
2022/07/26 07:44:12;;;;;;;5.67;4.97;;;32.70;51.00;;;;;;5046249;28;20229;-74
2022/07/26 07:46:39;;;;;;;6.73;4.47;;;32.70;50.60;;;;;;5045229;28;20322;-74
2022/07/26 07:49:06;;;;;;;7.97;5.40;;;32.70;51.50;;;;;;5039343;28;20211;-74
2022/07/26 07:51:34;;;;;;;6.73;4.97;;;32.80;51.50;;;;;;5045628;28;20603;-74
2022/07/26 07:54:02;;;;;;;5.17;4.60;;;32.90;50.30;;;;;;5043689;28;20217;-74
2022/07/26 07:56:32;;;;;;;8.53;5.00;;;33.10;50.90;;;;;;5022482;28;20203;-74
2022/07/26 07:58:59;;;;;;;10.07;5.50;;;33.20;51.00;;;;;;5040674;28;20236;-74
2022/07/26 08:01:26;;;;;;;9.47;5.47;;;33.40;50.70;;;;;;5044917;28;20650;-74
2022/07/26 08:04:07;;;;;;;6.37;5.13;;;33.60;49.90;;;;;;5037671;28;20203;-74
2022/07/26 08:06:35;;;;;;;6.13;4.37;;;33.70;49.00;;;;;;5061601;28;20673;-74
2022/07/26 08:09:03;;;;;;;5.17;4.67;;;33.70;48.20;;;;;;5037814;28;20269;-74
2022/07/26 08:11:32;;;;;;;11.20;6.37;;;33.70;48.10;;;;;;5041342;28;20211;-74
2022/07/26 08:14:00;;;;;;;7.87;5.50;;;33.60;48.30;;;;;;5040659;28;20538;-74
2022/07/26 08:16:27;;;;;;;9.77;5.07;;;33.60;48.90;;;;;;5035664;28;20270;-74
2022/07/26 08:18:56;;;;;;;6.57;4.50;;;33.70;48.90;;;;;;5041972;28;20206;-74
2022/07/26 08:21:34;;;;;;;7.97;5.60;;;33.80;48.40;;;;;;5039582;28;20221;-74
2022/07/26 08:24:02;;;;;;;7.37;5.07;;;33.90;48.70;;;;;;5038749;28;20199;-74
2022/07/26 08:26:29;;;;;;;7.77;5.07;;;34.20;48.20;;;;;;5034315;28;20215;-73
2022/07/26 08:28:56;;;;;;;6.40;5.30;;;34.30;47.90;;;;;;5038509;28;20565;-74
2022/07/26 08:31:27;;;;;;;6.40;4.33;;;34.50;47.90;;;;;;5041606;28;20293;-74
2022/07/26 08:33:54;;;;;;;7.47;4.70;;;34.60;46.30;;;;;;5037417;28;20226;-74
2022/07/26 08:36:22;;;;;;;7.13;4.73;;;34.60;46.10;;;;;;5040467;28;20290;-74
2022/07/26 08:38:49;;;;;;;5.27;4.80;;;34.60;46.80;;;;;;5038389;28;20206;-74
2022/07/26 08:41:17;;;;;;;5.67;5.03;;;34.60;45.40;;;;;;5041825;28;20230;-74
2022/07/26 08:43:45;;;;;;;7.00;4.70;;;34.60;45.60;;;;;;5042731;28;20213;-74
2022/07/26 08:46:23;;;;;;;6.83;5.20;;;34.50;46.10;;;;;;5036058;28;20268;-74
2022/07/26 08:48:54;;;;;;;8.93;4.80;;;34.60;46.20;;;;;;5043592;28;20211;-74
2022/07/26 08:51:23;;;;;;;9.10;4.43;;;34.70;45.20;;;;;;5039687;28;20203;-74
2022/07/26 08:53:55;;;;;;;8.00;4.83;;;34.80;45.40;;;;;;5051058;28;20524;-74
2022/07/26 08:56:31;;;;;;;4.37;3.87;;;34.90;44.30;;;;;;5044842;28;20194;-74
2022/07/26 08:59:01;;;;;;;6.97;4.20;;;35.00;43.80;;;;;;5039833;28;20652;-74
2022/07/26 09:01:28;;;;;;;6.00;4.70;;;35.10;44.10;;;;;;5043362;28;20219;-74
2022/07/26 09:03:55;;;;;;;7.43;4.17;;;35.20;43.90;;;;;;5042830;28;20202;-74
2022/07/26 09:06:22;;;;;;;8.00;4.60;;;35.30;43.40;;;;;;5047463;28;20202;-74
2022/07/26 09:09:09;;;;;;;5.53;4.00;;;35.40;42.60;;;;;;5044936;28;20227;-74
2022/07/26 09:11:37;;;;;;;5.67;4.70;;;35.40;42.80;;;;;;5041416;28;20210;-74
2022/07/26 09:14:05;;;;;;;5.93;5.00;;;35.40;42.90;;;;;;5048907;28;20245;-74
2022/07/26 09:16:32;;;;;;;6.07;4.60;;;35.40;43.10;;;;;;5046237;28;20210;-74
2022/07/26 09:19:21;;;;;;;7.87;4.57;;;35.50;42.80;;;;;;5040499;28;20233;-74
2022/07/26 09:21:49;;;;;;;6.20;4.60;;;35.70;42.50;;;;;;5042578;28;20760;-74
2022/07/26 09:24:37;;;;;;;6.90;4.40;;;35.80;42.90;;;;;;5041745;28;20577;-74
2022/07/26 09:27:07;;;;;;;9.03;4.77;;;36.00;42.90;;;;;;5043119;28;20265;-73
2022/07/26 09:29:55;;;;;;;7.00;4.17;;;36.30;42.60;;;;;;5047021;28;20639;-74
2022/07/26 09:32:24;;;;;;;10.73;4.60;;;36.40;41.90;;;;;;5043305;28;20211;-74
2022/07/26 09:35:07;;;;;;;6.00;4.90;;;36.60;41.90;;;;;;5043383;28;20218;-75
2022/07/26 09:37:55;;;;;;;9.10;4.90;;;36.60;40.90;;;;;;5042721;28;20268;-74
2022/07/26 09:40:22;;;;;;;6.37;4.60;;;36.40;41.00;;;;;;5041228;28;20195;-74
2022/07/26 09:43:15;;;;;;;5.67;4.50;;;36.40;40.80;;;;;;5046964;28;20218;-74
2022/07/26 09:46:03;;;;;;;6.43;4.60;;;36.30;40.90;;;;;;5039610;28;20199;-73
2022/07/26 09:48:31;;;;;;;7.97;5.07;;;36.20;41.20;;;;;;5042303;28;20246;-73
2022/07/26 09:51:37;;;;;;;5.63;5.00;;;36.30;41.50;;;;;;5044245;28;20203;-74
2022/07/26 09:54:05;;;;;;;5.57;4.40;;;36.40;41.80;;;;;;5041966;28;20218;-73
2022/07/26 09:56:43;;;;;;;7.37;5.10;;;36.60;42.10;;;;;;5040387;28;20219;-73
2022/07/26 09:59:12;;;;;;;6.72;5.32;;;36.80;41.30;;;;;;5044274;28;20285;-74
2022/07/26 10:01:40;;;;;;;8.15;4.85;;;36.90;41.20;;;;;;5041919;28;20227;-74
2022/07/26 10:04:07;;;;;;;8.23;4.97;;;37.00;40.60;;;;;;5042734;28;20198;-74
2022/07/26 10:06:35;;;;;;;9.00;5.32;;;36.90;40.30;;;;;;5041769;28;20200;-74
2022/07/26 10:09:03;;;;;;;10.63;5.55;;;36.90;40.40;;;;;;5041898;28;20207;-73
2022/07/26 10:11:51;;;;;;;7.43;5.05;;;37.00;40.80;;;;;;5044239;28;20203;-74
2022/07/26 10:14:35;;;;;;;6.35;4.75;;;37.00;40.90;;;;;;5042497;28;20217;-74
2022/07/26 10:17:27;;;;;;;5.43;4.75;;;37.20;40.50;;;;;;5040728;28;20614;-73
2022/07/26 10:20:04;;;;;;;6.13;5.30;;;37.40;39.80;;;;;;5041782;28;20203;-73
2022/07/26 10:22:45;;;;;;;6.93;5.00;;;37.50;39.40;;;;;;5046210;28;20226;-74
2022/07/26 10:25:18;;;;;;;7.15;4.97;;;37.50;39.70;;;;;;5040256;28;20218;-74
2022/07/26 10:27:51;;;;;;;7.30;4.85;;;37.50;40.20;;;;;;5042531;28;20266;-74
2022/07/26 10:30:18;;;;;;;9.05;5.90;;;37.50;39.70;;;;;;5047572;28;20222;-74
2022/07/26 10:33:12;;;;;;;6.97;4.88;;;37.50;39.40;;;;;;5070835;28;20723;-74
2022/07/26 10:35:42;;;;;;;7.55;5.50;;;37.50;39.40;;;;;;5044775;28;20206;-74
2022/07/26 10:38:21;;;;;;;7.93;5.20;;;37.30;39.80;;;;;;5026515;28;20717;-74
2022/07/26 10:41:00;;;;;;;7.22;5.75;;;37.20;40.00;;;;;;5049630;28;20206;-74
2022/07/26 10:43:28;;;;;;;10.63;5.18;;;37.20;39.20;;;;;;5041972;28;20240;-74
2022/07/26 10:46:19;;;;;;;7.32;5.50;;;37.20;40.00;;;;;;5039175;28;20298;-74
2022/07/26 10:48:55;;;;;;;8.87;5.03;;;37.40;40.40;;;;;;5045066;28;20199;-74
2022/07/26 10:51:35;;;;;;;9.30;5.28;;;37.60;40.00;;;;;;5036642;28;20203;-74
2022/07/26 10:54:04;;;;;;;6.63;5.63;;;37.80;39.80;;;;;;5046321;28;20241;-74
2022/07/26 10:56:32;;;;;;;9.75;5.70;;;38.10;39.80;;;;;;5044906;28;20202;-74
2022/07/26 10:59:00;;;;;;;8.73;5.32;;;38.30;38.80;;;;;;5041982;28;20210;-74
2022/07/26 11:01:36;;;;;;;10.35;5.55;;;38.30;38.90;;;;;;5039685;28;20219;-74
2022/07/26 11:04:06;;;;;;;6.60;5.15;;;38.20;39.50;;;;;;5039807;28;20194;-74
2022/07/26 11:06:33;;;;;;;8.45;5.25;;;38.30;39.10;;;;;;5042444;28;20261;-75
2022/07/26 11:09:09;;;;;;;6.15;5.32;;;38.30;39.20;;;;;;5042853;28;20207;-74
2022/07/26 11:11:37;;;;;;;8.95;5.90;;;38.30;39.90;;;;;;5020796;28;20218;-74
2022/07/26 11:14:05;;;;;;;6.80;5.88;;;38.30;38.90;;;;;;5041595;28;20237;-74
2022/07/26 11:16:40;;;;;;;6.88;5.22;;;38.30;38.90;;;;;;5038863;28;20674;-74
2022/07/26 11:19:38;;;;;;;7.72;5.70;;;38.20;39.30;;;;;;5044893;28;20259;-74
2022/07/26 11:22:05;;;;;;;8.68;5.57;;;38.20;39.30;;;;;;5041553;28;20257;-74
2022/07/26 11:24:39;;;;;;;6.07;5.50;;;38.20;39.40;;;;;;5043511;28;20187;-74
2022/07/26 11:27:06;;;;;;;6.35;5.22;;;38.20;39.80;;;;;;5042015;28;20279;-74
2022/07/26 11:29:36;;;;;;;8.80;5.88;;;38.20;39.20;;;;;;5040564;28;20279;-74
2022/07/26 11:32:16;;;;;;;8.18;5.38;;;38.00;39.50;;;;;;5043365;28;20215;-74
2022/07/26 11:34:45;;;;;;;5.97;5.40;;;37.80;39.70;;;;;;5040752;28;20287;-74
2022/07/26 11:37:13;;;;;;;12.05;5.85;;;37.80;39.90;;;;;;5042737;28;20542;-74
2022/07/26 11:39:40;;;;;;;7.22;6.53;;;37.90;39.50;;;;;;5037643;28;20203;-74
2022/07/26 11:42:18;;;;;;;6.55;5.63;;;37.90;40.50;;;;;;5037964;28;20246;-74
2022/07/26 11:44:46;;;;;;;16.08;6.40;;;38.00;39.40;;;;;;5039124;28;20219;-74
2022/07/26 11:47:20;;;;;;;7.18;5.75;;;38.10;39.80;;;;;;5044605;28;20210;-74
2022/07/26 11:49:52;;;;;;;10.27;5.88;;;38.20;39.60;;;;;;5040716;28;20211;-74
2022/07/26 11:52:39;;;;;;;9.40;6.70;;;38.40;40.30;;;;;;5037908;28;20209;-74
2022/07/26 11:55:07;;;;;;;10.40;5.75;;;38.50;39.60;;;;;;5035496;28;20218;-74
2022/07/26 11:57:34;;;;;;;6.85;5.80;;;38.50;39.40;;;;;;5035893;28;20199;-74
2022/07/26 12:00:02;;;;;;;7.75;6.65;;;38.60;39.60;;;;;;5041140;28;20672;-74
2022/07/26 12:02:38;;;;;;;7.70;6.30;;;38.70;38.90;;;;;;5038159;28;20315;-74
2022/07/26 12:05:21;;;;;;;7.35;6.50;;;38.80;39.10;;;;;;5038949;28;20200;-74
2022/07/26 12:07:53;;;;;;;8.65;6.47;;;39.00;39.50;;;;;;5046617;28;20682;-74
2022/07/26 12:10:21;;;;;;;8.25;6.13;;;39.10;39.50;;;;;;5044358;28;20206;-74
2022/07/26 12:12:48;;;;;;;7.88;6.18;;;39.30;39.20;;;;;;5038098;28;20221;-74
2022/07/26 12:15:15;;;;;;;7.43;5.90;;;39.40;37.90;;;;;;5041338;28;20202;-74
2022/07/26 12:18:00;;;;;;;6.57;5.97;;;39.40;38.50;;;;;;5035515;28;20237;-74
2022/07/26 12:20:27;;;;;;;6.80;6.22;;;39.40;39.70;;;;;;5042564;28;20225;-74
2022/07/26 12:22:59;;;;;;;7.00;6.28;;;39.50;40.10;;;;;;5071754;28;20285;-74
2022/07/26 12:25:27;;;;;;;5.70;5.30;;;39.60;39.90;;;;;;5027266;28;20210;-74
2022/07/26 12:27:55;;;;;;;6.95;6.22;;;39.70;40.20;;;;;;5046180;28;20258;-74
2022/07/26 12:30:24;;;;;;;11.13;5.90;;;39.80;40.50;;;;;;5039244;28;20569;-74
2022/07/26 12:33:00;;;;;;;6.07;5.57;;;39.80;39.80;;;;;;5033674;28;20210;-74
2022/07/26 12:35:36;;;;;;;7.95;5.70;;;39.70;39.50;;;;;;5044232;28;20289;-75
2022/07/26 12:38:03;;;;;;;8.63;6.50;;;39.30;39.50;;;;;;5045535;28;20243;-74
2022/07/26 12:40:40;;;;;;;7.38;6.68;;;38.90;40.10;;;;;;5042722;28;20464;-74
2022/07/26 12:43:08;;;;;;;6.20;5.68;;;38.50;41.00;;;;;;5048135;28;20210;-75
2022/07/26 12:45:36;;;;;;;10.38;6.88;;;38.10;40.70;;;;;;5040957;28;20194;-75
2022/07/26 12:48:11;;;;;;;7.60;5.45;;;37.80;41.30;;;;;;5043563;28;20198;-75
2022/07/26 12:50:38;;;;;;;11.10;5.30;;;37.60;42.30;;;;;;5036121;28;20206;-75
2022/07/26 12:53:07;;;;;;;7.25;5.03;;;37.60;42.40;;;;;;5045066;28;20587;-75
2022/07/26 12:55:38;;;;;;;6.60;5.03;;;37.50;41.60;;;;;;5041464;28;20278;-75
2022/07/26 12:58:05;;;;;;;6.83;5.90;;;37.10;42.00;;;;;;5045423;28;20257;-75
2022/07/26 13:00:32;;;;;;;10.20;5.47;;;36.80;42.40;;;;;;5042764;28;20234;-75
2022/07/26 13:02:59;;;;;;;6.63;6.03;;;36.50;43.30;;;;;;5045413;28;20234;-75